createdAt,value
2022-11-16T00:01:47.976Z,177
2022-11-16T00:04:18.905Z,162
2022-11-16T00:06:49.781Z,161
2022-11-16T00:09:20.611Z,173
2022-11-16T00:11:53.777Z,164
2022-11-16T00:14:24.067Z,162
2022-11-16T00:16:54.959Z,167
2022-11-16T00:19:28.990Z,155
2022-11-16T00:21:59.389Z,149
2022-11-16T00:24:29.910Z,149
2022-11-16T00:27:09.694Z,137
2022-11-16T00:29:39.929Z,140
2022-11-16T00:32:10.041Z,142
2022-11-16T00:34:40.518Z,145
2022-11-16T00:37:11.024Z,145
2022-11-16T00:39:39.768Z,132
2022-11-16T00:42:12.626Z,127
2022-11-16T00:44:43.720Z,127
2022-11-16T00:47:14.287Z,125
2022-11-16T00:49:45.365Z,127
2022-11-16T00:52:16.506Z,127
2022-11-16T00:54:47.663Z,137
2022-11-16T00:57:19.264Z,124
2022-11-16T00:59:49.766Z,133
2022-11-16T01:02:19.919Z,121
2022-11-16T01:04:50.647Z,134
2022-11-16T01:07:21.652Z,133
2022-11-16T01:09:54.701Z,133
2022-11-16T01:12:23.514Z,129
2022-11-16T01:14:53.453Z,132
2022-11-16T01:17:24.196Z,140
2022-11-16T01:19:58.103Z,135
2022-11-16T01:22:28.798Z,146
2022-11-16T01:24:59.715Z,137
2022-11-16T01:27:30.224Z,155
2022-11-16T01:30:01.092Z,135
2022-11-16T01:32:31.300Z,141
2022-11-16T01:35:02.216Z,143
2022-11-16T01:37:33.231Z,133
2022-11-16T01:40:04.193Z,131
2022-11-16T01:42:34.421Z,133
2022-11-16T01:45:05.447Z,131
2022-11-16T01:47:38.406Z,132
2022-11-16T01:50:09.660Z,126
2022-11-16T01:52:40.748Z,134
2022-11-16T01:55:11.819Z,135
2022-11-16T01:57:42.091Z,140
2022-11-16T02:00:14.882Z,121
2022-11-16T02:02:48.625Z,125
2022-11-16T02:05:19.173Z,133
2022-11-16T02:07:49.708Z,116
2022-11-16T02:10:21.883Z,116
2022-11-16T02:12:52.798Z,127
2022-11-16T02:15:23.073Z,122
2022-11-16T02:17:56.535Z,123
2022-11-16T02:20:27.940Z,122
2022-11-16T02:22:58.945Z,125
2022-11-16T02:25:29.850Z,120
2022-11-16T02:28:00.104Z,130
2022-11-16T02:30:32.931Z,136
2022-11-16T02:33:02.096Z,117
2022-11-16T02:35:32.525Z,120
2022-11-16T02:38:04.904Z,124
2022-11-16T02:40:36.118Z,114
2022-11-16T02:43:07.222Z,109
2022-11-16T02:45:38.794Z,121
2022-11-16T02:48:09.537Z,125
2022-11-16T02:50:41.480Z,119
2022-11-16T02:53:12.302Z,133
2022-11-16T02:55:42.987Z,132
2022-11-16T02:58:13.167Z,130
2022-11-16T03:00:44.401Z,130
2022-11-16T03:03:16.332Z,122
2022-11-16T03:05:47.703Z,119
2022-11-16T03:08:20.044Z,112
2022-11-16T03:10:51.903Z,116
2022-11-16T03:13:23.020Z,113
2022-11-16T03:15:55.252Z,128
2022-11-16T03:18:29.125Z,113
2022-11-16T03:20:59.752Z,107
2022-11-16T03:23:30.404Z,117
2022-11-16T03:26:00.789Z,114
2022-11-16T03:28:31.062Z,111
2022-11-16T03:31:01.094Z,107
2022-11-16T03:33:31.291Z,111
2022-11-16T03:36:01.376Z,122
2022-11-16T03:38:32.157Z,123
2022-11-16T03:41:02.366Z,125
2022-11-16T03:43:33.223Z,117
2022-11-16T03:46:03.714Z,130
2022-11-16T03:48:33.612Z,126
2022-11-16T03:51:04.648Z,135
2022-11-16T03:53:36.794Z,121
2022-11-16T03:56:09.027Z,118
2022-11-16T03:58:39.216Z,119
2022-11-16T04:01:10.267Z,109
2022-11-16T04:03:42.547Z,132
2022-11-16T04:06:13.121Z,133
2022-11-16T04:08:41.470Z,145
2022-11-16T04:11:11.861Z,120
2022-11-16T04:13:41.300Z,114
2022-11-16T04:16:13.897Z,117
2022-11-16T04:18:44.592Z,106
2022-11-16T04:21:15.158Z,113
2022-11-16T04:23:45.956Z,111
2022-11-16T04:26:16.362Z,107
2022-11-16T04:28:47.496Z,118
2022-11-16T04:31:21.197Z,110
2022-11-16T04:33:51.988Z,145
2022-11-16T04:36:22.398Z,158
2022-11-16T04:38:53.390Z,149
2022-11-16T04:41:24.032Z,127
2022-11-16T04:43:55.360Z,133
2022-11-16T04:46:27.376Z,116
2022-11-16T04:48:58.615Z,117
2022-11-16T04:51:28.935Z,115
2022-11-16T04:53:59.468Z,124
2022-11-16T04:56:30.100Z,105
2022-11-16T04:59:00.653Z,118
2022-11-16T05:01:31.448Z,103
2022-11-16T05:04:02.356Z,96
2022-11-16T05:06:32.681Z,100
2022-11-16T05:09:03.164Z,101
2022-11-16T05:11:34.012Z,107
2022-11-16T05:14:05.097Z,113
2022-11-16T05:16:35.610Z,100
2022-11-16T05:19:06.710Z,100
2022-11-16T05:21:37.282Z,97
2022-11-16T05:24:08.577Z,107
2022-11-16T05:26:39.312Z,98
2022-11-16T05:29:12.245Z,100
2022-11-16T05:31:42.718Z,111
2022-11-16T05:34:15.879Z,120
2022-11-16T05:36:48.767Z,100
2022-11-16T05:39:19.170Z,106
2022-11-16T05:41:49.542Z,112
2022-11-16T05:44:22.669Z,125
2022-11-16T05:46:53.527Z,110
2022-11-16T05:49:24.283Z,138
2022-11-16T05:51:55.643Z,132
2022-11-16T05:54:27.488Z,138
2022-11-16T05:56:58.984Z,116
2022-11-16T05:59:28.623Z,117
2022-11-16T06:01:59.385Z,120
2022-11-16T06:04:29.614Z,99
2022-11-16T06:07:00.497Z,97
2022-11-16T06:09:32.406Z,93
2022-11-16T06:12:01.084Z,105
2022-11-16T06:14:31.544Z,99
2022-11-16T06:17:05.580Z,97
2022-11-16T06:19:37.733Z,99
2022-11-16T06:22:09.627Z,93
2022-11-16T06:24:41.090Z,93
2022-11-16T06:27:12.204Z,89
2022-11-16T06:29:42.591Z,90
2022-11-16T06:32:16.614Z,88
2022-11-16T06:34:49.903Z,91
2022-11-16T06:37:21.348Z,94
2022-11-16T06:39:54.867Z,96
2022-11-16T06:42:25.336Z,97
2022-11-16T06:44:57.112Z,91
2022-11-16T06:47:31.411Z,84
2022-11-16T06:50:05.068Z,81
2022-11-16T06:52:36.873Z,81
2022-11-16T06:55:07.308Z,84
2022-11-16T06:57:39.006Z,76
2022-11-16T07:00:09.501Z,85
2022-11-16T07:02:41.431Z,71
2022-11-16T07:07:42.513Z,72
2022-11-16T07:10:14.889Z,73
2022-11-16T07:12:45.440Z,71
2022-11-16T07:15:15.532Z,70
2022-11-16T07:17:47.984Z,67
2022-11-16T07:20:18.420Z,68
2022-11-16T07:22:48.466Z,71
2022-11-16T07:25:18.369Z,72
2022-11-16T07:27:48.568Z,72
2022-11-16T07:30:19.525Z,77
2022-11-16T07:32:51.349Z,77
2022-11-16T07:35:21.406Z,73
2022-11-16T07:37:52.921Z,68
2022-11-16T07:40:25.640Z,70
2022-11-16T07:42:56.034Z,73
2022-11-16T07:45:29.980Z,72
2022-11-16T07:48:02.199Z,71
2022-11-16T07:50:35.072Z,72
2022-11-16T07:53:08.902Z,76
2022-11-16T07:55:40.159Z,68
2022-11-16T07:58:10.431Z,75
2022-11-16T08:00:42.870Z,72
2022-11-16T08:03:14.509Z,72
2022-11-16T08:05:47.570Z,76
2022-11-16T08:08:17.935Z,66
2022-11-16T08:10:49.919Z,77
2022-11-16T08:13:19.988Z,65
2022-11-16T08:15:50.545Z,60
2022-11-16T08:18:22.245Z,60
2022-11-16T08:20:53.796Z,44
2022-11-16T08:23:25.749Z,53
2022-11-16T08:25:56.746Z,49
2022-11-16T08:28:28.246Z,56
2022-11-16T08:30:59.537Z,48
2022-11-16T08:33:31.738Z,52
2022-11-16T08:36:00.685Z,60
2022-11-16T08:38:31.263Z,58
2022-11-16T08:41:01.771Z,55
2022-11-16T08:43:30.897Z,81
2022-11-16T08:46:07.353Z,80
2022-11-16T08:48:39.066Z,68
2022-11-16T08:51:19.852Z,61
2022-11-16T08:53:42.198Z,67
2022-11-16T08:56:11.832Z,72
2022-11-16T08:58:44.571Z,71
2022-11-16T09:01:15.746Z,82
2022-11-16T09:03:49.676Z,80
2022-11-16T09:06:23.040Z,72
2022-11-16T09:08:52.966Z,72
2022-11-16T09:11:23.730Z,69
2022-11-16T09:13:55.409Z,64
2022-11-16T09:16:27.226Z,68
2022-11-16T09:18:59.526Z,63
2022-11-16T09:21:31.815Z,60
2022-11-16T09:24:05.526Z,53
2022-11-16T09:26:35.334Z,56
2022-11-16T09:29:07.260Z,55
2022-11-16T09:31:36.620Z,53
2022-11-16T09:34:09.857Z,56
2022-11-16T09:36:39.563Z,61
2022-11-16T09:39:29.312Z,72
2022-11-16T09:41:46.746Z,81
2022-11-16T09:44:18.999Z,84
2022-11-16T09:46:49.226Z,79
2022-11-16T09:49:21.225Z,68
2022-11-16T09:51:50.260Z,71
2022-11-16T09:54:20.742Z,67
2022-11-16T09:56:51.664Z,66
2022-11-16T09:59:22.776Z,80
2022-11-16T10:01:52.693Z,73
2022-11-16T10:04:23.918Z,71
2022-11-16T10:06:55.714Z,74
2022-11-16T10:09:25.365Z,75
2022-11-16T10:11:56.166Z,61
2022-11-16T10:14:27.589Z,66
2022-11-16T10:16:58.859Z,65
2022-11-16T10:19:30.184Z,57
2022-11-16T10:22:01.044Z,63
2022-11-16T10:24:38.494Z,57
2022-11-16T10:27:08.724Z,63
2022-11-16T10:29:40.162Z,61
2022-11-16T10:32:10.730Z,56
2022-11-16T10:34:41.558Z,53
2022-11-16T10:37:12.136Z,51
2022-11-16T10:39:43.210Z,51
2022-11-16T10:42:14.646Z,44
2022-11-16T10:44:45.201Z,41
2022-11-16T10:47:15.152Z,45
2022-11-16T10:49:45.368Z,43
2022-11-16T10:52:16.141Z,33
2022-11-16T10:54:47.774Z,23
2022-11-16T10:57:18.624Z,25
2022-11-16T10:59:49.598Z,26
2022-11-16T11:02:19.982Z,29
2022-11-16T11:04:50.102Z,35
2022-11-16T11:07:21.121Z,41
2022-11-16T11:09:49.741Z,42
2022-11-16T11:12:20.171Z,27
2022-11-16T11:14:50.562Z,29
2022-11-16T11:17:24.350Z,31
2022-11-16T11:19:55.152Z,37
2022-11-16T11:22:26.083Z,23
2022-11-16T11:24:56.592Z,20
2022-11-16T11:27:27.532Z,27
2022-11-16T11:29:59.096Z,19
2022-11-16T11:32:28.751Z,24
2022-11-16T11:34:59.855Z,24
2022-11-16T11:37:30.895Z,24
2022-11-16T11:40:02.065Z,40
2022-11-16T11:42:33.170Z,38
2022-11-16T11:45:05.228Z,54
2022-11-16T11:50:09.137Z,73
2022-11-16T11:52:39.453Z,76
2022-11-16T11:55:09.891Z,51
2022-11-16T11:57:41.154Z,38
2022-11-16T12:00:14.455Z,21
2022-11-16T12:02:45.063Z,20
2022-11-16T12:05:15.731Z,23
2022-11-16T12:07:45.908Z,17
2022-11-16T12:10:16.867Z,16
2022-11-16T12:12:48.486Z,20
2022-11-16T12:15:19.053Z,13
2022-11-16T12:17:49.635Z,19
2022-11-16T12:20:20.415Z,13
2022-11-16T12:22:50.978Z,16
2022-11-16T12:25:25.135Z,12
2022-11-16T12:27:55.895Z,17
2022-11-16T12:30:26.472Z,16
2022-11-16T12:32:56.991Z,13
2022-11-16T12:35:28.957Z,13
2022-11-16T12:38:00.104Z,13
2022-11-16T12:40:31.155Z,23
2022-11-16T12:43:02.093Z,33
2022-11-16T12:45:33.606Z,17
2022-11-16T12:48:06.563Z,17
2022-11-16T12:50:38.225Z,19
2022-11-16T12:53:08.623Z,19
2022-11-16T12:55:39.223Z,21
2022-11-16T12:58:10.802Z,16
2022-11-16T13:00:41.613Z,36
2022-11-16T13:03:14.141Z,38
2022-11-16T13:05:46.493Z,33
2022-11-16T13:08:17.315Z,35
2022-11-16T13:10:49.503Z,43
2022-11-16T13:13:35.803Z,40
2022-11-16T13:15:52.473Z,20
2022-11-16T13:18:22.625Z,29
2022-11-16T13:20:53.524Z,16
2022-11-16T13:23:24.630Z,20
2022-11-16T13:25:55.467Z,15
2022-11-16T13:28:29.366Z,13
2022-11-16T13:30:56.789Z,14
2022-11-16T13:33:28.654Z,76
2022-11-16T13:36:02.458Z,64
2022-11-16T13:38:33.452Z,61
2022-11-16T13:41:05.128Z,36
2022-11-16T13:43:35.806Z,23
2022-11-16T13:46:06.544Z,24
2022-11-16T13:48:37.951Z,27
2022-11-16T13:51:08.397Z,29
2022-11-16T13:56:10.089Z,24
2022-11-16T13:58:45.204Z,18
2022-11-16T14:01:16.633Z,21
2022-11-16T14:03:48.189Z,20
2022-11-16T14:06:20.224Z,24
2022-11-16T14:08:51.463Z,28
2022-11-16T14:11:21.153Z,27
2022-11-16T14:13:52.013Z,25
2022-11-16T14:16:27.172Z,20
2022-11-16T14:18:59.853Z,29
2022-11-16T14:21:31.019Z,21
2022-11-16T14:24:02.208Z,21
2022-11-16T14:26:36.220Z,30
2022-11-16T14:29:07.980Z,37
2022-11-16T14:31:42.456Z,39
2022-11-16T14:34:14.338Z,47
2022-11-16T14:36:45.355Z,45
2022-11-16T14:39:16.370Z,40
2022-11-16T14:41:48.760Z,42
2022-11-16T14:44:20.021Z,72
2022-11-16T14:46:50.637Z,37
2022-11-16T14:49:22.979Z,32
2022-11-16T14:51:54.971Z,34
2022-11-16T14:54:26.067Z,37
2022-11-16T14:56:58.774Z,36
2022-11-16T14:59:30.456Z,36
2022-11-16T15:02:01.828Z,43
2022-11-16T15:04:33.252Z,46
2022-11-16T15:07:05.266Z,49
2022-11-16T15:09:38.100Z,36
2022-11-16T15:12:09.840Z,48
2022-11-16T15:14:41.285Z,47
2022-11-16T15:17:13.305Z,45
2022-11-16T15:19:44.613Z,43
2022-11-16T15:22:15.784Z,45
2022-11-16T15:24:47.688Z,47
2022-11-16T15:27:19.106Z,45
2022-11-16T15:29:50.926Z,52
2022-11-16T15:32:24.299Z,51
2022-11-16T15:34:55.566Z,56
2022-11-16T15:37:28.106Z,52
2022-11-16T15:40:00.862Z,52
2022-11-16T15:42:41.260Z,48
2022-11-16T15:45:17.196Z,52
2022-11-16T15:47:47.477Z,64
2022-11-16T15:50:20.405Z,64
2022-11-16T15:52:51.366Z,76
2022-11-16T15:55:22.548Z,78
2022-11-16T15:57:53.365Z,80
2022-11-16T16:00:24.759Z,80
2022-11-16T16:02:57.003Z,75
2022-11-16T16:05:29.572Z,58
2022-11-16T16:08:00.881Z,60
2022-11-16T16:10:32.664Z,65
2022-11-16T16:13:07.446Z,64
2022-11-16T16:15:38.529Z,71
2022-11-16T16:18:12.561Z,68
2022-11-16T16:20:48.891Z,73
2022-11-16T16:23:22.929Z,80
2022-11-16T16:25:54.377Z,71
2022-11-16T16:28:26.418Z,60
2022-11-16T16:30:57.510Z,54
2022-11-16T16:33:29.995Z,54
2022-11-16T16:36:01.692Z,56
2022-11-16T16:38:32.869Z,49
2022-11-16T16:41:06.421Z,52
2022-11-16T16:43:37.699Z,56
2022-11-16T16:46:08.642Z,49
2022-11-16T16:48:44.451Z,48
2022-11-16T16:51:11.016Z,50
2022-11-16T16:53:42.312Z,53
2022-11-16T16:56:15.274Z,48
2022-11-16T16:58:44.730Z,50
2022-11-16T17:01:17.776Z,52
2022-11-16T17:03:49.080Z,45
2022-11-16T17:06:20.583Z,51
2022-11-16T17:08:51.258Z,53
2022-11-16T17:11:23.697Z,51
2022-11-16T17:13:55.149Z,56
2022-11-16T17:16:28.068Z,49
2022-11-16T17:18:57.306Z,57
2022-11-16T17:21:27.112Z,56
2022-11-16T17:24:02.660Z,59
2022-11-16T17:26:35.958Z,55
2022-11-16T17:29:05.511Z,52
2022-11-16T17:31:37.377Z,46
2022-11-16T17:34:13.455Z,45
2022-11-16T17:36:41.355Z,48
2022-11-16T17:39:12.365Z,45
2022-11-16T17:41:44.006Z,48
2022-11-16T17:44:20.246Z,52
2022-11-16T17:46:46.100Z,52
2022-11-16T17:49:19.364Z,48
2022-11-16T17:51:50.776Z,49
2022-11-16T17:54:23.268Z,51
2022-11-16T17:56:55.080Z,48
2022-11-16T17:59:29.676Z,48
2022-11-16T18:02:00.552Z,48
2022-11-16T18:04:31.826Z,47
2022-11-16T18:07:03.177Z,48
2022-11-16T18:09:34.507Z,36
2022-11-16T18:12:05.605Z,45
2022-11-16T18:14:37.105Z,48
2022-11-16T18:17:07.825Z,36
2022-11-16T18:19:40.581Z,33
2022-11-16T18:22:11.706Z,40
2022-11-16T18:24:43.002Z,33
2022-11-16T18:27:14.032Z,38
2022-11-16T18:29:46.626Z,40
2022-11-16T18:32:17.465Z,36
2022-11-16T18:34:49.530Z,38
2022-11-16T18:37:19.016Z,40
2022-11-16T18:39:51.105Z,42
2022-11-16T18:42:24.616Z,35
2022-11-16T18:44:55.816Z,36
2022-11-16T18:47:26.699Z,36
2022-11-16T18:49:59.321Z,39
2022-11-16T18:52:29.970Z,41
2022-11-16T18:55:01.024Z,37
2022-11-16T18:57:32.153Z,41
2022-11-16T19:02:49.507Z,31
2022-11-16T19:05:20.406Z,32
2022-11-16T19:07:53.583Z,41
2022-11-16T19:10:24.991Z,42
2022-11-16T19:13:00.761Z,35
2022-11-16T19:15:33.325Z,36
2022-11-16T19:18:20.881Z,35
2022-11-16T19:20:35.873Z,44
2022-11-16T19:23:06.584Z,42
2022-11-16T19:25:37.861Z,37
2022-11-16T19:28:08.165Z,36
2022-11-16T19:30:39.144Z,38
2022-11-16T19:33:11.218Z,37
2022-11-16T19:35:42.371Z,43
2022-11-16T19:38:14.535Z,44
2022-11-16T19:40:45.754Z,45
2022-11-16T19:43:17.871Z,35
2022-11-16T19:45:50.373Z,36
2022-11-16T19:48:21.560Z,36
2022-11-16T19:50:53.121Z,28
2022-11-16T19:53:24.380Z,34
2022-11-16T19:55:55.689Z,29
2022-11-16T19:58:26.560Z,33
2022-11-16T20:00:58.762Z,28
2022-11-16T20:03:30.193Z,41
2022-11-16T20:06:07.646Z,32
2022-11-16T20:08:39.890Z,34
2022-11-16T20:11:11.010Z,37
2022-11-16T20:13:45.236Z,44
2022-11-16T20:16:14.835Z,45
2022-11-16T20:18:45.518Z,31
2022-11-16T20:21:17.778Z,32
2022-11-16T20:23:51.460Z,36
2022-11-16T20:26:26.029Z,39
2022-11-16T20:28:56.569Z,48
2022-11-16T20:31:29.689Z,44
2022-11-16T20:34:00.984Z,36
2022-11-16T20:36:31.995Z,28
2022-11-16T20:39:02.132Z,36
2022-11-16T20:41:33.266Z,31
2022-11-16T20:44:04.618Z,29
2022-11-16T20:46:36.887Z,32
2022-11-16T20:49:09.001Z,41
2022-11-16T20:51:41.505Z,40
2022-11-16T20:54:13.276Z,51
2022-11-16T20:56:44.141Z,47
2022-11-16T20:59:15.300Z,43
2022-11-16T21:01:46.358Z,37
2022-11-16T21:04:17.494Z,37
2022-11-16T21:06:48.724Z,44
2022-11-16T21:09:21.123Z,39
2022-11-16T21:11:53.267Z,40
2022-11-16T21:14:24.606Z,41
2022-11-16T21:16:57.001Z,44
2022-11-16T21:19:29.282Z,40
2022-11-16T21:22:00.161Z,40
2022-11-16T21:24:31.043Z,45
2022-11-16T21:27:02.475Z,39
2022-11-16T21:29:33.290Z,42
2022-11-16T21:32:04.329Z,43
2022-11-16T21:34:39.896Z,48
2022-11-16T21:37:06.682Z,35
2022-11-16T21:39:36.944Z,44
2022-11-16T21:42:10.012Z,37
2022-11-16T21:44:42.419Z,37
2022-11-16T21:47:14.885Z,43
2022-11-16T21:50:16.666Z,43
2022-11-16T21:52:21.004Z,42
2022-11-16T21:54:52.014Z,44
2022-11-16T21:57:23.871Z,57
2022-11-16T21:59:54.063Z,46
2022-11-16T22:02:26.262Z,53
2022-11-16T22:04:57.426Z,60
2022-11-16T22:07:29.603Z,52
2022-11-16T22:10:02.228Z,48
2022-11-16T22:12:34.191Z,52
2022-11-16T22:15:05.169Z,53
2022-11-16T22:17:36.192Z,59
2022-11-16T22:20:06.918Z,52
2022-11-16T22:22:38.778Z,50
2022-11-16T22:25:08.744Z,56
2022-11-16T22:27:58.612Z,58
2022-11-16T22:30:11.859Z,52
2022-11-16T22:32:43.696Z,60
2022-11-16T22:35:17.944Z,59
2022-11-16T22:37:50.179Z,56
2022-11-16T22:40:21.534Z,56
2022-11-16T22:42:52.313Z,65
2022-11-16T22:45:23.682Z,68
2022-11-16T22:47:55.310Z,63
2022-11-16T22:50:29.360Z,67
2022-11-16T22:53:00.978Z,69
2022-11-16T22:55:32.020Z,67
2022-11-16T22:58:03.463Z,68
2022-11-16T23:00:39.093Z,60
2022-11-16T23:03:04.746Z,68
2022-11-16T23:05:36.009Z,72
2022-11-16T23:08:07.300Z,63
2022-11-16T23:10:38.180Z,67
2022-11-16T23:13:09.247Z,67
2022-11-16T23:15:40.191Z,67
2022-11-16T23:18:11.031Z,64
2022-11-16T23:20:44.086Z,65
2022-11-16T23:23:16.530Z,56
2022-11-16T23:25:47.539Z,66
2022-11-16T23:28:22.371Z,58
2022-11-16T23:30:53.239Z,59
2022-11-16T23:33:23.878Z,60
2022-11-16T23:35:54.651Z,57
2022-11-16T23:38:25.431Z,54
2022-11-16T23:40:58.061Z,60
2022-11-16T23:43:29.204Z,60
2022-11-16T23:46:00.866Z,56
2022-11-16T23:48:33.684Z,57
2022-11-16T23:51:04.012Z,69
2022-11-16T23:53:35.678Z,58
2022-11-16T23:56:06.404Z,58
2022-11-16T23:58:38.733Z,57
